sensor_id;sensor_type;location;lat;lon;timestamp;P1;durP1;ratioP1;P2;durP2;ratioP2
45730;SDS011;31440;48.584;13.460;2023-04-03T00:01:45;2.30;;;1.45;;
45730;SDS011;31440;48.584;13.460;2023-04-03T00:04:50;3.55;;;1.83;;
45730;SDS011;31440;48.584;13.460;2023-04-03T00:07:55;1.33;;;1.17;;
45730;SDS011;31440;48.584;13.460;2023-04-03T00:11:00;1.45;;;1.20;;
45730;SDS011;31440;48.584;13.460;2023-04-03T00:14:05;2.58;;;1.63;;
45730;SDS011;31440;48.584;13.460;2023-04-03T00:17:10;2.20;;;1.50;;
45730;SDS011;31440;48.584;13.460;2023-04-03T00:20:14;1.92;;;1.67;;
45730;SDS011;31440;48.584;13.460;2023-04-03T00:23:19;1.63;;;1.50;;
45730;SDS011;31440;48.584;13.460;2023-04-03T00:26:24;2.10;;;1.30;;
45730;SDS011;31440;48.584;13.460;2023-04-03T00:29:29;1.98;;;1.42;;
45730;SDS011;31440;48.584;13.460;2023-04-03T00:32:33;2.08;;;1.35;;
45730;SDS011;31440;48.584;13.460;2023-04-03T00:35:39;1.80;;;1.42;;
45730;SDS011;31440;48.584;13.460;2023-04-03T00:38:44;1.52;;;1.42;;
45730;SDS011;31440;48.584;13.460;2023-04-03T00:41:49;2.67;;;1.70;;
45730;SDS011;31440;48.584;13.460;2023-04-03T00:48:02;2.30;;;1.85;;
45730;SDS011;31440;48.584;13.460;2023-04-03T00:51:11;2.30;;;1.85;;
45730;SDS011;31440;48.584;13.460;2023-04-03T00:54:19;2.15;;;1.95;;
45730;SDS011;31440;48.584;13.460;2023-04-03T00:57:23;3.63;;;1.60;;
45730;SDS011;31440;48.584;13.460;2023-04-03T01:00:28;2.05;;;1.77;;
45730;SDS011;31440;48.584;13.460;2023-04-03T01:03:33;1.77;;;1.55;;
45730;SDS011;31440;48.584;13.460;2023-04-03T01:06:40;1.90;;;1.70;;
45730;SDS011;31440;48.584;13.460;2023-04-03T01:09:45;2.33;;;1.90;;
45730;SDS011;31440;48.584;13.460;2023-04-03T01:12:52;2.10;;;1.65;;
45730;SDS011;31440;48.584;13.460;2023-04-03T01:16:00;1.92;;;1.48;;
45730;SDS011;31440;48.584;13.460;2023-04-03T01:19:07;1.88;;;1.70;;
45730;SDS011;31440;48.584;13.460;2023-04-03T01:22:19;1.90;;;1.60;;
45730;SDS011;31440;48.584;13.460;2023-04-03T01:25:33;3.15;;;2.03;;
45730;SDS011;31440;48.584;13.460;2023-04-03T01:28:39;2.20;;;1.55;;
45730;SDS011;31440;48.584;13.460;2023-04-03T01:31:52;2.58;;;1.80;;
45730;SDS011;31440;48.584;13.460;2023-04-03T01:34:58;2.35;;;1.67;;
45730;SDS011;31440;48.584;13.460;2023-04-03T01:38:03;2.33;;;1.42;;
45730;SDS011;31440;48.584;13.460;2023-04-03T01:41:08;3.30;;;1.52;;
45730;SDS011;31440;48.584;13.460;2023-04-03T01:44:14;2.15;;;1.88;;
45730;SDS011;31440;48.584;13.460;2023-04-03T01:47:19;3.63;;;1.95;;
45730;SDS011;31440;48.584;13.460;2023-04-03T01:50:23;1.80;;;1.70;;
45730;SDS011;31440;48.584;13.460;2023-04-03T01:53:29;1.90;;;1.80;;
45730;SDS011;31440;48.584;13.460;2023-04-03T01:56:33;1.70;;;1.60;;
45730;SDS011;31440;48.584;13.460;2023-04-03T01:59:38;3.15;;;2.40;;
45730;SDS011;31440;48.584;13.460;2023-04-03T02:02:43;2.85;;;1.73;;
45730;SDS011;31440;48.584;13.460;2023-04-03T02:05:49;1.95;;;1.50;;
45730;SDS011;31440;48.584;13.460;2023-04-03T02:08:54;2.60;;;2.00;;
45730;SDS011;31440;48.584;13.460;2023-04-03T02:11:59;3.60;;;2.00;;
45730;SDS011;31440;48.584;13.460;2023-04-03T02:15:04;2.63;;;1.98;;
45730;SDS011;31440;48.584;13.460;2023-04-03T02:18:09;3.00;;;2.28;;
45730;SDS011;31440;48.584;13.460;2023-04-03T02:21:14;3.90;;;2.22;;
45730;SDS011;31440;48.584;13.460;2023-04-03T02:24:18;2.83;;;2.08;;
45730;SDS011;31440;48.584;13.460;2023-04-03T02:27:23;5.70;;;2.88;;
45730;SDS011;31440;48.584;13.460;2023-04-03T02:30:28;2.92;;;1.95;;
45730;SDS011;31440;48.584;13.460;2023-04-03T02:33:32;2.67;;;2.17;;
45730;SDS011;31440;48.584;13.460;2023-04-03T02:36:43;3.50;;;2.33;;
45730;SDS011;31440;48.584;13.460;2023-04-03T02:39:49;3.10;;;1.98;;
45730;SDS011;31440;48.584;13.460;2023-04-03T02:42:54;2.08;;;1.90;;
45730;SDS011;31440;48.584;13.460;2023-04-03T02:46:01;3.70;;;2.17;;
45730;SDS011;31440;48.584;13.460;2023-04-03T02:49:05;2.83;;;1.80;;
45730;SDS011;31440;48.584;13.460;2023-04-03T02:52:10;2.85;;;2.25;;
45730;SDS011;31440;48.584;13.460;2023-04-03T02:55:15;6.03;;;2.30;;
45730;SDS011;31440;48.584;13.460;2023-04-03T02:58:21;3.22;;;2.22;;
45730;SDS011;31440;48.584;13.460;2023-04-03T03:01:27;2.42;;;1.83;;
45730;SDS011;31440;48.584;13.460;2023-04-03T03:04:36;2.78;;;2.42;;
45730;SDS011;31440;48.584;13.460;2023-04-03T03:07:40;3.10;;;2.45;;
45730;SDS011;31440;48.584;13.460;2023-04-03T03:10:45;2.97;;;2.08;;
45730;SDS011;31440;48.584;13.460;2023-04-03T03:13:50;6.53;;;2.53;;
45730;SDS011;31440;48.584;13.460;2023-04-03T03:16:54;3.42;;;2.28;;
45730;SDS011;31440;48.584;13.460;2023-04-03T03:19:59;3.30;;;2.33;;
45730;SDS011;31440;48.584;13.460;2023-04-03T03:23:03;2.67;;;1.88;;
45730;SDS011;31440;48.584;13.460;2023-04-03T03:26:09;2.45;;;2.08;;
45730;SDS011;31440;48.584;13.460;2023-04-03T03:29:15;4.53;;;2.47;;
45730;SDS011;31440;48.584;13.460;2023-04-03T03:32:21;5.00;;;2.53;;
45730;SDS011;31440;48.584;13.460;2023-04-03T03:35:25;2.03;;;1.83;;
45730;SDS011;31440;48.584;13.460;2023-04-03T03:38:30;2.75;;;2.03;;
45730;SDS011;31440;48.584;13.460;2023-04-03T03:41:36;5.82;;;2.30;;
45730;SDS011;31440;48.584;13.460;2023-04-03T03:44:42;3.47;;;2.67;;
45730;SDS011;31440;48.584;13.460;2023-04-03T03:47:46;4.03;;;2.92;;
45730;SDS011;31440;48.584;13.460;2023-04-03T03:50:51;3.05;;;2.00;;
45730;SDS011;31440;48.584;13.460;2023-04-03T03:54:00;2.67;;;2.13;;
45730;SDS011;31440;48.584;13.460;2023-04-03T03:57:05;2.40;;;2.10;;
45730;SDS011;31440;48.584;13.460;2023-04-03T04:00:09;2.90;;;2.30;;
45730;SDS011;31440;48.584;13.460;2023-04-03T04:03:24;4.88;;;2.63;;
45730;SDS011;31440;48.584;13.460;2023-04-03T04:06:29;3.10;;;2.80;;
45730;SDS011;31440;48.584;13.460;2023-04-03T04:09:37;2.67;;;1.80;;
45730;SDS011;31440;48.584;13.460;2023-04-03T04:12:42;2.10;;;1.73;;
45730;SDS011;31440;48.584;13.460;2023-04-03T04:15:47;3.35;;;2.17;;
45730;SDS011;31440;48.584;13.460;2023-04-03T04:18:53;2.92;;;2.38;;
45730;SDS011;31440;48.584;13.460;2023-04-03T04:21:58;3.92;;;2.25;;
45730;SDS011;31440;48.584;13.460;2023-04-03T04:25:03;2.90;;;2.17;;
45730;SDS011;31440;48.584;13.460;2023-04-03T04:28:08;3.55;;;2.75;;
45730;SDS011;31440;48.584;13.460;2023-04-03T04:31:13;4.55;;;1.85;;
45730;SDS011;31440;48.584;13.460;2023-04-03T04:34:18;5.00;;;2.05;;
45730;SDS011;31440;48.584;13.460;2023-04-03T04:37:24;3.85;;;2.08;;
45730;SDS011;31440;48.584;13.460;2023-04-03T04:40:29;3.92;;;1.90;;
45730;SDS011;31440;48.584;13.460;2023-04-03T04:43:35;3.10;;;2.25;;
45730;SDS011;31440;48.584;13.460;2023-04-03T04:46:41;3.85;;;2.53;;
45730;SDS011;31440;48.584;13.460;2023-04-03T04:49:46;3.17;;;2.45;;
45730;SDS011;31440;48.584;13.460;2023-04-03T04:52:52;3.42;;;2.00;;
45730;SDS011;31440;48.584;13.460;2023-04-03T04:55:57;3.33;;;2.38;;
45730;SDS011;31440;48.584;13.460;2023-04-03T04:59:02;3.20;;;2.25;;
45730;SDS011;31440;48.584;13.460;2023-04-03T05:02:07;3.75;;;2.42;;
45730;SDS011;31440;48.584;13.460;2023-04-03T05:05:13;2.67;;;2.30;;
45730;SDS011;31440;48.584;13.460;2023-04-03T05:08:18;4.32;;;2.78;;
45730;SDS011;31440;48.584;13.460;2023-04-03T05:11:23;3.35;;;3.05;;
45730;SDS011;31440;48.584;13.460;2023-04-03T05:14:29;2.92;;;2.25;;
45730;SDS011;31440;48.584;13.460;2023-04-03T05:17:38;4.05;;;2.40;;
45730;SDS011;31440;48.584;13.460;2023-04-03T05:20:50;4.88;;;2.88;;
45730;SDS011;31440;48.584;13.460;2023-04-03T05:23:56;6.18;;;3.20;;
45730;SDS011;31440;48.584;13.460;2023-04-03T05:27:01;3.30;;;2.53;;
45730;SDS011;31440;48.584;13.460;2023-04-03T05:30:08;2.60;;;2.40;;
45730;SDS011;31440;48.584;13.460;2023-04-03T05:33:14;4.53;;;3.03;;
45730;SDS011;31440;48.584;13.460;2023-04-03T05:36:26;3.30;;;2.72;;
45730;SDS011;31440;48.584;13.460;2023-04-03T05:39:36;3.17;;;2.55;;
45730;SDS011;31440;48.584;13.460;2023-04-03T05:42:43;2.75;;;2.55;;
45730;SDS011;31440;48.584;13.460;2023-04-03T05:45:49;6.78;;;2.78;;
45730;SDS011;31440;48.584;13.460;2023-04-03T05:48:55;3.70;;;2.88;;
45730;SDS011;31440;48.584;13.460;2023-04-03T05:52:03;6.65;;;2.80;;
45730;SDS011;31440;48.584;13.460;2023-04-03T05:55:09;4.60;;;2.55;;
45730;SDS011;31440;48.584;13.460;2023-04-03T05:58:14;3.33;;;2.35;;
45730;SDS011;31440;48.584;13.460;2023-04-03T06:01:21;3.50;;;2.58;;
45730;SDS011;31440;48.584;13.460;2023-04-03T06:04:26;4.60;;;2.80;;
45730;SDS011;31440;48.584;13.460;2023-04-03T06:07:31;5.07;;;3.00;;
45730;SDS011;31440;48.584;13.460;2023-04-03T06:10:35;4.50;;;3.08;;
45730;SDS011;31440;48.584;13.460;2023-04-03T06:13:40;4.18;;;2.58;;
45730;SDS011;31440;48.584;13.460;2023-04-03T06:16:45;3.47;;;2.78;;
45730;SDS011;31440;48.584;13.460;2023-04-03T06:19:51;4.30;;;3.05;;
45730;SDS011;31440;48.584;13.460;2023-04-03T06:22:55;3.97;;;2.72;;
45730;SDS011;31440;48.584;13.460;2023-04-03T06:26:00;4.70;;;2.70;;
45730;SDS011;31440;48.584;13.460;2023-04-03T06:29:05;3.20;;;2.67;;
45730;SDS011;31440;48.584;13.460;2023-04-03T06:32:09;5.68;;;3.05;;
45730;SDS011;31440;48.584;13.460;2023-04-03T06:35:14;3.05;;;2.38;;
45730;SDS011;31440;48.584;13.460;2023-04-03T06:38:19;4.25;;;2.67;;
45730;SDS011;31440;48.584;13.460;2023-04-03T06:41:23;4.70;;;2.58;;
45730;SDS011;31440;48.584;13.460;2023-04-03T06:44:30;4.43;;;2.78;;
45730;SDS011;31440;48.584;13.460;2023-04-03T06:47:35;6.32;;;2.45;;
45730;SDS011;31440;48.584;13.460;2023-04-03T06:50:39;3.17;;;1.90;;
45730;SDS011;31440;48.584;13.460;2023-04-03T06:53:44;3.05;;;2.22;;
45730;SDS011;31440;48.584;13.460;2023-04-03T06:56:50;3.97;;;2.55;;
45730;SDS011;31440;48.584;13.460;2023-04-03T06:59:55;4.30;;;2.55;;
45730;SDS011;31440;48.584;13.460;2023-04-03T07:03:00;4.25;;;3.13;;
45730;SDS011;31440;48.584;13.460;2023-04-03T07:06:05;2.58;;;2.38;;
45730;SDS011;31440;48.584;13.460;2023-04-03T07:09:11;3.20;;;2.13;;
45730;SDS011;31440;48.584;13.460;2023-04-03T07:12:16;2.60;;;2.40;;
45730;SDS011;31440;48.584;13.460;2023-04-03T07:15:20;2.80;;;2.10;;
45730;SDS011;31440;48.584;13.460;2023-04-03T07:18:26;3.53;;;2.25;;
45730;SDS011;31440;48.584;13.460;2023-04-03T07:21:30;2.22;;;2.00;;
45730;SDS011;31440;48.584;13.460;2023-04-03T07:24:35;3.25;;;2.15;;
45730;SDS011;31440;48.584;13.460;2023-04-03T07:27:40;3.20;;;2.45;;
45730;SDS011;31440;48.584;13.460;2023-04-03T07:30:46;2.28;;;2.08;;
45730;SDS011;31440;48.584;13.460;2023-04-03T07:33:52;3.00;;;2.03;;
45730;SDS011;31440;48.584;13.460;2023-04-03T07:36:57;3.65;;;3.35;;
45730;SDS011;31440;48.584;13.460;2023-04-03T07:40:02;3.60;;;2.22;;
45730;SDS011;31440;48.584;13.460;2023-04-03T07:43:08;4.80;;;2.22;;
45730;SDS011;31440;48.584;13.460;2023-04-03T07:46:12;6.55;;;2.78;;
45730;SDS011;31440;48.584;13.460;2023-04-03T07:49:17;6.78;;;2.45;;
45730;SDS011;31440;48.584;13.460;2023-04-03T07:52:27;3.60;;;2.25;;
45730;SDS011;31440;48.584;13.460;2023-04-03T07:55:32;2.35;;;1.40;;
45730;SDS011;31440;48.584;13.460;2023-04-03T07:58:38;4.10;;;1.65;;
45730;SDS011;31440;48.584;13.460;2023-04-03T08:01:42;2.47;;;1.33;;
45730;SDS011;31440;48.584;13.460;2023-04-03T08:04:47;4.88;;;2.08;;
45730;SDS011;31440;48.584;13.460;2023-04-03T08:07:52;1.80;;;1.20;;
45730;SDS011;31440;48.584;13.460;2023-04-03T08:10:57;2.38;;;1.30;;
45730;SDS011;31440;48.584;13.460;2023-04-03T08:14:03;2.67;;;1.58;;
45730;SDS011;31440;48.584;13.460;2023-04-03T08:17:08;4.80;;;1.30;;
45730;SDS011;31440;48.584;13.460;2023-04-03T08:20:16;1.55;;;1.15;;
45730;SDS011;31440;48.584;13.460;2023-04-03T08:23:20;1.90;;;1.10;;
45730;SDS011;31440;48.584;13.460;2023-04-03T08:26:25;1.75;;;1.35;;
45730;SDS011;31440;48.584;13.460;2023-04-03T08:29:31;2.05;;;1.05;;
45730;SDS011;31440;48.584;13.460;2023-04-03T08:32:36;3.50;;;1.17;;
45730;SDS011;31440;48.584;13.460;2023-04-03T08:35:41;2.65;;;0.95;;
45730;SDS011;31440;48.584;13.460;2023-04-03T08:38:47;1.65;;;1.05;;
45730;SDS011;31440;48.584;13.460;2023-04-03T08:41:53;3.80;;;1.13;;
45730;SDS011;31440;48.584;13.460;2023-04-03T08:45:05;1.13;;;0.80;;
45730;SDS011;31440;48.584;13.460;2023-04-03T08:48:18;1.92;;;1.27;;
45730;SDS011;31440;48.584;13.460;2023-04-03T08:51:25;2.90;;;0.82;;
45730;SDS011;31440;48.584;13.460;2023-04-03T08:54:37;1.30;;;1.20;;
45730;SDS011;31440;48.584;13.460;2023-04-03T08:58:00;1.73;;;1.17;;
45730;SDS011;31440;48.584;13.460;2023-04-03T09:04:26;6.88;;;1.20;;
45730;SDS011;31440;48.584;13.460;2023-04-03T09:07:36;3.50;;;1.30;;
45730;SDS011;31440;48.584;13.460;2023-04-03T09:10:46;1.95;;;1.17;;
45730;SDS011;31440;48.584;13.460;2023-04-03T09:13:59;2.17;;;1.02;;
45730;SDS011;31440;48.584;13.460;2023-04-03T09:23:58;1.77;;;1.45;;
45730;SDS011;31440;48.584;13.460;2023-04-03T09:27:06;2.75;;;1.20;;
45730;SDS011;31440;48.584;13.460;2023-04-03T09:30:14;1.05;;;0.80;;
45730;SDS011;31440;48.584;13.460;2023-04-03T09:33:21;2.25;;;1.17;;
45730;SDS011;31440;48.584;13.460;2023-04-03T09:36:36;2.08;;;1.00;;
45730;SDS011;31440;48.584;13.460;2023-04-03T09:39:51;2.63;;;1.05;;
45730;SDS011;31440;48.584;13.460;2023-04-03T09:42:59;1.50;;;0.95;;
45730;SDS011;31440;48.584;13.460;2023-04-03T09:46:31;2.67;;;0.90;;
45730;SDS011;31440;48.584;13.460;2023-04-03T09:49:39;1.48;;;0.90;;
45730;SDS011;31440;48.584;13.460;2023-04-03T09:52:44;1.35;;;1.00;;
45730;SDS011;31440;48.584;13.460;2023-04-03T09:55:50;1.98;;;1.42;;
45730;SDS011;31440;48.584;13.460;2023-04-03T10:02:04;4.50;;;0.90;;
45730;SDS011;31440;48.584;13.460;2023-04-03T10:05:26;2.00;;;0.93;;
45730;SDS011;31440;48.584;13.460;2023-04-03T10:08:34;1.38;;;1.27;;
45730;SDS011;31440;48.584;13.460;2023-04-03T10:11:39;1.95;;;1.00;;
45730;SDS011;31440;48.584;13.460;2023-04-03T10:15:01;1.67;;;1.15;;
45730;SDS011;31440;48.584;13.460;2023-04-03T10:18:08;3.33;;;1.15;;
45730;SDS011;31440;48.584;13.460;2023-04-03T10:25:20;1.88;;;1.10;;
45730;SDS011;31440;48.584;13.460;2023-04-03T10:28:45;1.52;;;1.02;;
45730;SDS011;31440;48.584;13.460;2023-04-03T10:39:12;1.27;;;0.98;;
45730;SDS011;31440;48.584;13.460;2023-04-03T10:46:52;2.47;;;1.00;;
45730;SDS011;31440;48.584;13.460;2023-04-03T10:49:46;1.58;;;1.00;;
45730;SDS011;31440;48.584;13.460;2023-04-03T10:56:40;2.80;;;1.30;;
45730;SDS011;31440;48.584;13.460;2023-04-03T10:59:48;3.15;;;1.30;;
45730;SDS011;31440;48.584;13.460;2023-04-03T11:02:57;1.55;;;1.05;;
45730;SDS011;31440;48.584;13.460;2023-04-03T11:06:08;3.90;;;1.48;;
45730;SDS011;31440;48.584;13.460;2023-04-03T11:09:25;6.22;;;2.28;;
45730;SDS011;31440;48.584;13.460;2023-04-03T11:12:38;1.95;;;1.42;;
45730;SDS011;31440;48.584;13.460;2023-04-03T11:15:51;2.22;;;1.15;;
45730;SDS011;31440;48.584;13.460;2023-04-03T11:19:17;1.73;;;0.98;;
45730;SDS011;31440;48.584;13.460;2023-04-03T11:22:42;2.60;;;1.08;;
45730;SDS011;31440;48.584;13.460;2023-04-03T11:25:50;1.92;;;1.25;;
45730;SDS011;31440;48.584;13.460;2023-04-03T11:28:59;2.60;;;0.90;;
45730;SDS011;31440;48.584;13.460;2023-04-03T11:35:32;1.00;;;1.00;;
45730;SDS011;31440;48.584;13.460;2023-04-03T11:38:41;2.17;;;1.40;;
45730;SDS011;31440;48.584;13.460;2023-04-03T11:41:48;3.78;;;1.23;;
45730;SDS011;31440;48.584;13.460;2023-04-03T11:51:39;2.05;;;1.30;;
45730;SDS011;31440;48.584;13.460;2023-04-03T11:54:46;1.35;;;1.10;;
45730;SDS011;31440;48.584;13.460;2023-04-03T12:01:06;1.67;;;1.38;;
45730;SDS011;31440;48.584;13.460;2023-04-03T12:04:16;2.78;;;1.17;;
45730;SDS011;31440;48.584;13.460;2023-04-03T12:07:22;2.67;;;1.40;;
45730;SDS011;31440;48.584;13.460;2023-04-03T12:10:27;4.00;;;1.55;;
45730;SDS011;31440;48.584;13.460;2023-04-03T12:16:59;1.80;;;1.40;;
45730;SDS011;31440;48.584;13.460;2023-04-03T12:20:28;4.75;;;1.30;;
45730;SDS011;31440;48.584;13.460;2023-04-03T12:30:22;1.80;;;1.10;;
45730;SDS011;31440;48.584;13.460;2023-04-03T12:33:38;1.88;;;1.60;;
45730;SDS011;31440;48.584;13.460;2023-04-03T12:50:38;2.15;;;1.25;;
45730;SDS011;31440;48.584;13.460;2023-04-03T12:53:45;2.28;;;1.02;;
45730;SDS011;31440;48.584;13.460;2023-04-03T12:56:51;1.40;;;1.30;;
45730;SDS011;31440;48.584;13.460;2023-04-03T12:59:56;1.70;;;1.17;;
45730;SDS011;31440;48.584;13.460;2023-04-03T13:03:01;5.38;;;1.60;;
45730;SDS011;31440;48.584;13.460;2023-04-03T13:06:17;1.92;;;1.50;;
45730;SDS011;31440;48.584;13.460;2023-04-03T13:09:26;3.75;;;1.70;;
45730;SDS011;31440;48.584;13.460;2023-04-03T13:12:33;2.33;;;1.17;;
45730;SDS011;31440;48.584;13.460;2023-04-03T13:15:40;1.48;;;1.23;;
45730;SDS011;31440;48.584;13.460;2023-04-03T13:18:50;1.85;;;1.20;;
45730;SDS011;31440;48.584;13.460;2023-04-03T13:22:01;3.72;;;1.30;;
45730;SDS011;31440;48.584;13.460;2023-04-03T13:25:13;1.92;;;1.35;;
45730;SDS011;31440;48.584;13.460;2023-04-03T13:28:20;2.38;;;1.40;;
45730;SDS011;31440;48.584;13.460;2023-04-03T13:31:37;1.92;;;1.73;;
45730;SDS011;31440;48.584;13.460;2023-04-03T13:34:44;1.98;;;1.30;;
45730;SDS011;31440;48.584;13.460;2023-04-03T13:37:58;2.97;;;1.40;;
45730;SDS011;31440;48.584;13.460;2023-04-03T13:44:36;1.75;;;1.45;;
45730;SDS011;31440;48.584;13.460;2023-04-03T13:47:44;1.65;;;1.20;;
45730;SDS011;31440;48.584;13.460;2023-04-03T13:50:54;5.28;;;1.40;;
45730;SDS011;31440;48.584;13.460;2023-04-03T13:54:16;2.60;;;1.55;;
45730;SDS011;31440;48.584;13.460;2023-04-03T13:57:24;1.40;;;1.30;;
45730;SDS011;31440;48.584;13.460;2023-04-03T14:00:35;4.45;;;1.52;;
45730;SDS011;31440;48.584;13.460;2023-04-03T14:06:56;4.88;;;1.60;;
45730;SDS011;31440;48.584;13.460;2023-04-03T14:10:01;3.13;;;1.50;;
45730;SDS011;31440;48.584;13.460;2023-04-03T14:13:05;2.28;;;1.60;;
45730;SDS011;31440;48.584;13.460;2023-04-03T14:16:12;5.18;;;1.40;;
45730;SDS011;31440;48.584;13.460;2023-04-03T14:19:21;4.95;;;1.40;;
45730;SDS011;31440;48.584;13.460;2023-04-03T14:22:29;1.67;;;1.52;;
45730;SDS011;31440;48.584;13.460;2023-04-03T14:25:36;3.10;;;2.03;;
45730;SDS011;31440;48.584;13.460;2023-04-03T14:28:42;3.00;;;1.70;;
45730;SDS011;31440;48.584;13.460;2023-04-03T14:31:49;3.72;;;1.77;;
45730;SDS011;31440;48.584;13.460;2023-04-03T14:35:07;2.03;;;1.40;;
45730;SDS011;31440;48.584;13.460;2023-04-03T14:38:13;2.15;;;1.38;;
45730;SDS011;31440;48.584;13.460;2023-04-03T14:41:27;1.77;;;1.38;;
45730;SDS011;31440;48.584;13.460;2023-04-03T14:44:31;2.85;;;1.70;;
45730;SDS011;31440;48.584;13.460;2023-04-03T14:47:39;2.20;;;1.75;;
45730;SDS011;31440;48.584;13.460;2023-04-03T14:50:53;1.90;;;1.52;;
45730;SDS011;31440;48.584;13.460;2023-04-03T14:54:13;6.75;;;2.05;;
45730;SDS011;31440;48.584;13.460;2023-04-03T14:57:19;3.20;;;2.17;;
45730;SDS011;31440;48.584;13.460;2023-04-03T15:00:28;2.65;;;1.60;;
45730;SDS011;31440;48.584;13.460;2023-04-03T15:03:32;2.17;;;1.63;;
45730;SDS011;31440;48.584;13.460;2023-04-03T15:06:37;3.13;;;1.70;;
45730;SDS011;31440;48.584;13.460;2023-04-03T15:09:42;3.88;;;1.63;;
45730;SDS011;31440;48.584;13.460;2023-04-03T15:12:47;2.85;;;1.80;;
45730;SDS011;31440;48.584;13.460;2023-04-03T15:15:52;2.42;;;1.85;;
45730;SDS011;31440;48.584;13.460;2023-04-03T15:18:57;3.90;;;1.58;;
45730;SDS011;31440;48.584;13.460;2023-04-03T15:22:02;3.08;;;1.75;;
45730;SDS011;31440;48.584;13.460;2023-04-03T15:25:06;2.05;;;1.70;;
45730;SDS011;31440;48.584;13.460;2023-04-03T15:28:31;3.70;;;1.58;;
45730;SDS011;31440;48.584;13.460;2023-04-03T15:31:38;2.10;;;1.60;;
45730;SDS011;31440;48.584;13.460;2023-04-03T15:34:43;3.70;;;1.70;;
45730;SDS011;31440;48.584;13.460;2023-04-03T15:37:47;2.17;;;1.48;;
45730;SDS011;31440;48.584;13.460;2023-04-03T15:40:53;2.85;;;2.00;;
45730;SDS011;31440;48.584;13.460;2023-04-03T15:43:59;2.15;;;1.58;;
45730;SDS011;31440;48.584;13.460;2023-04-03T15:47:03;3.33;;;1.50;;
45730;SDS011;31440;48.584;13.460;2023-04-03T15:50:08;4.78;;;1.40;;
45730;SDS011;31440;48.584;13.460;2023-04-03T15:53:13;2.20;;;1.60;;
45730;SDS011;31440;48.584;13.460;2023-04-03T15:56:18;1.60;;;1.27;;
45730;SDS011;31440;48.584;13.460;2023-04-03T15:59:23;3.70;;;1.50;;
45730;SDS011;31440;48.584;13.460;2023-04-03T16:02:28;2.13;;;1.65;;
45730;SDS011;31440;48.584;13.460;2023-04-03T16:05:32;3.95;;;2.67;;
45730;SDS011;31440;48.584;13.460;2023-04-03T16:08:41;4.93;;;1.70;;
45730;SDS011;31440;48.584;13.460;2023-04-03T16:11:46;4.20;;;1.67;;
45730;SDS011;31440;48.584;13.460;2023-04-03T16:14:51;2.38;;;1.42;;
45730;SDS011;31440;48.584;13.460;2023-04-03T16:17:56;6.25;;;2.28;;
45730;SDS011;31440;48.584;13.460;2023-04-03T16:21:02;4.75;;;1.65;;
45730;SDS011;31440;48.584;13.460;2023-04-03T16:24:08;5.47;;;1.60;;
45730;SDS011;31440;48.584;13.460;2023-04-03T16:27:13;3.95;;;1.65;;
45730;SDS011;31440;48.584;13.460;2023-04-03T16:30:17;3.17;;;2.28;;
45730;SDS011;31440;48.584;13.460;2023-04-03T16:33:22;2.70;;;1.50;;
45730;SDS011;31440;48.584;13.460;2023-04-03T16:36:28;2.08;;;1.45;;
45730;SDS011;31440;48.584;13.460;2023-04-03T16:39:32;4.07;;;1.55;;
45730;SDS011;31440;48.584;13.460;2023-04-03T16:42:37;2.78;;;1.58;;
45730;SDS011;31440;48.584;13.460;2023-04-03T16:45:42;3.33;;;1.77;;
45730;SDS011;31440;48.584;13.460;2023-04-03T16:48:46;3.38;;;1.75;;
45730;SDS011;31440;48.584;13.460;2023-04-03T16:51:51;2.72;;;1.60;;
45730;SDS011;31440;48.584;13.460;2023-04-03T16:54:55;4.47;;;1.85;;
45730;SDS011;31440;48.584;13.460;2023-04-03T16:58:02;1.92;;;1.42;;
45730;SDS011;31440;48.584;13.460;2023-04-03T17:01:14;3.00;;;2.38;;
45730;SDS011;31440;48.584;13.460;2023-04-03T17:04:21;4.03;;;1.67;;
45730;SDS011;31440;48.584;13.460;2023-04-03T17:07:26;3.67;;;2.03;;
45730;SDS011;31440;48.584;13.460;2023-04-03T17:10:31;2.38;;;1.95;;
45730;SDS011;31440;48.584;13.460;2023-04-03T17:13:37;3.08;;;1.90;;
45730;SDS011;31440;48.584;13.460;2023-04-03T17:16:42;2.88;;;2.00;;
45730;SDS011;31440;48.584;13.460;2023-04-03T17:19:47;6.05;;;1.80;;
45730;SDS011;31440;48.584;13.460;2023-04-03T17:22:52;3.65;;;2.10;;
45730;SDS011;31440;48.584;13.460;2023-04-03T17:25:57;3.28;;;2.03;;
45730;SDS011;31440;48.584;13.460;2023-04-03T17:29:02;3.70;;;2.00;;
45730;SDS011;31440;48.584;13.460;2023-04-03T17:32:07;2.55;;;1.70;;
45730;SDS011;31440;48.584;13.460;2023-04-03T17:35:12;3.08;;;1.67;;
45730;SDS011;31440;48.584;13.460;2023-04-03T17:38:16;4.03;;;2.30;;
45730;SDS011;31440;48.584;13.460;2023-04-03T17:41:21;4.57;;;1.83;;
45730;SDS011;31440;48.584;13.460;2023-04-03T17:44:26;4.50;;;1.75;;
45730;SDS011;31440;48.584;13.460;2023-04-03T17:47:31;3.22;;;1.80;;
45730;SDS011;31440;48.584;13.460;2023-04-03T17:50:36;4.10;;;2.35;;
45730;SDS011;31440;48.584;13.460;2023-04-03T17:53:41;3.60;;;2.00;;
45730;SDS011;31440;48.584;13.460;2023-04-03T17:56:47;4.13;;;2.45;;
45730;SDS011;31440;48.584;13.460;2023-04-03T17:59:52;2.92;;;1.98;;
45730;SDS011;31440;48.584;13.460;2023-04-03T18:02:57;3.75;;;2.17;;
45730;SDS011;31440;48.584;13.460;2023-04-03T18:06:03;3.72;;;2.25;;
45730;SDS011;31440;48.584;13.460;2023-04-03T18:09:10;3.60;;;2.15;;
45730;SDS011;31440;48.584;13.460;2023-04-03T18:12:18;2.83;;;2.00;;
45730;SDS011;31440;48.584;13.460;2023-04-03T18:15:23;2.67;;;1.73;;
45730;SDS011;31440;48.584;13.460;2023-04-03T18:18:29;3.53;;;3.00;;
45730;SDS011;31440;48.584;13.460;2023-04-03T18:21:34;2.80;;;1.95;;
45730;SDS011;31440;48.584;13.460;2023-04-03T18:24:39;3.83;;;2.25;;
45730;SDS011;31440;48.584;13.460;2023-04-03T18:27:46;3.60;;;2.00;;
45730;SDS011;31440;48.584;13.460;2023-04-03T18:30:51;4.13;;;2.60;;
45730;SDS011;31440;48.584;13.460;2023-04-03T18:33:56;4.15;;;2.85;;
45730;SDS011;31440;48.584;13.460;2023-04-03T18:37:02;4.90;;;2.97;;
45730;SDS011;31440;48.584;13.460;2023-04-03T18:40:06;4.95;;;2.95;;
45730;SDS011;31440;48.584;13.460;2023-04-03T18:43:12;4.82;;;3.28;;
45730;SDS011;31440;48.584;13.460;2023-04-03T18:46:17;5.45;;;2.70;;
45730;SDS011;31440;48.584;13.460;2023-04-03T18:49:23;5.28;;;2.55;;
45730;SDS011;31440;48.584;13.460;2023-04-03T18:52:27;5.22;;;2.72;;
45730;SDS011;31440;48.584;13.460;2023-04-03T18:55:32;7.43;;;3.58;;
45730;SDS011;31440;48.584;13.460;2023-04-03T18:58:36;3.80;;;2.53;;
45730;SDS011;31440;48.584;13.460;2023-04-03T19:01:41;4.18;;;2.90;;
45730;SDS011;31440;48.584;13.460;2023-04-03T19:04:46;4.07;;;2.40;;
45730;SDS011;31440;48.584;13.460;2023-04-03T19:07:52;2.58;;;2.25;;
45730;SDS011;31440;48.584;13.460;2023-04-03T19:10:58;5.72;;;2.65;;
45730;SDS011;31440;48.584;13.460;2023-04-03T19:14:03;4.80;;;2.22;;
45730;SDS011;31440;48.584;13.460;2023-04-03T19:17:20;2.45;;;1.80;;
45730;SDS011;31440;48.584;13.460;2023-04-03T19:20:24;6.15;;;2.50;;
45730;SDS011;31440;48.584;13.460;2023-04-03T19:23:29;3.72;;;2.35;;
45730;SDS011;31440;48.584;13.460;2023-04-03T19:26:34;4.13;;;1.52;;
45730;SDS011;31440;48.584;13.460;2023-04-03T19:29:39;3.05;;;1.88;;
45730;SDS011;31440;48.584;13.460;2023-04-03T19:32:44;4.53;;;1.75;;
45730;SDS011;31440;48.584;13.460;2023-04-03T19:35:49;2.20;;;1.80;;
45730;SDS011;31440;48.584;13.460;2023-04-03T19:38:54;4.22;;;1.50;;
45730;SDS011;31440;48.584;13.460;2023-04-03T19:41:58;5.07;;;1.85;;
45730;SDS011;31440;48.584;13.460;2023-04-03T19:45:04;2.35;;;1.42;;
45730;SDS011;31440;48.584;13.460;2023-04-03T19:48:09;2.95;;;2.00;;